Time;durP1;ratioP1;P1;durP2;ratioP2;P2;SDS_P1;SDS_P2;PMS_P1;PMS_P2;Temp;Humidity;BMP_temperature;BMP_pressure;BME280_temperature;BME280_humidity;BME280_pressure;Samples;Min_cycle;Max_cycle;Signal;HPM_P1;HPM_P2
2023/12/15 00:02:21;;;;;;;14.52;7.57;;;;;;;;;;8364130;28;20052;-83
2023/12/15 00:06:24;;;;;;;35.38;13.13;;;;;;;;;;8364075;28;20098;-84
2023/12/15 00:14:37;;;;;;;31.65;12.02;;;;;;;;;;8458217;23;20076;-85
2023/12/15 00:18:41;;;;;;;29.77;10.60;;;;;;;;;;8396648;28;20052;-85
2023/12/15 00:22:44;;;;;;;27.92;13.00;;;;;;;;;;8396562;28;20062;-84
2023/12/15 00:26:47;;;;;;;12.25;6.20;;;;;;;;;;8396438;28;20181;-84
2023/12/15 00:30:50;;;;;;;15.48;7.25;;;;;;;;;;8396474;28;20489;-84
2023/12/15 00:34:54;;;;;;;23.48;11.95;;;;;;;;;;8396077;28;20044;-85
2023/12/15 00:38:57;;;;;;;25.65;12.60;;;;;;;;;;8396277;28;20041;-83
2023/12/15 00:43:00;;;;;;;22.35;10.82;;;;;;;;;;8396123;28;20053;-85
2023/12/15 00:47:02;;;;;;;21.88;10.10;;;;;;;;;;8396035;28;20040;-84
2023/12/15 00:51:07;;;;;;;19.48;10.98;;;;;;;;;;8395964;28;20044;-85
2023/12/15 00:55:10;;;;;;;22.65;11.80;;;;;;;;;;8395963;28;20059;-84
2023/12/15 00:59:13;;;;;;;24.92;11.63;;;;;;;;;;8395824;28;20097;-83
2023/12/15 01:03:16;;;;;;;27.80;11.82;;;;;;;;;;8395661;28;20115;-85
2023/12/15 01:07:20;;;;;;;25.98;11.43;;;;;;;;;;8396217;28;20400;-84
2023/12/15 01:11:23;;;;;;;30.67;12.77;;;;;;;;;;8395437;28;20056;-84
2023/12/15 01:15:26;;;;;;;29.20;12.48;;;;;;;;;;8396018;28;20471;-84
2023/12/15 01:19:28;;;;;;;27.38;12.23;;;;;;;;;;8395493;28;20047;-84
2023/12/15 01:23:35;;;;;;;20.02;9.18;;;;;;;;;;8395826;28;20132;-83
2023/12/15 01:27:38;;;;;;;26.05;12.60;;;;;;;;;;8395551;28;20044;-84
2023/12/15 01:31:41;;;;;;;18.45;9.45;;;;;;;;;;8395447;28;20103;-83
2023/12/15 01:35:43;;;;;;;15.77;8.10;;;;;;;;;;8395217;28;20381;-84
2023/12/15 01:39:48;;;;;;;13.73;7.93;;;;;;;;;;8395372;28;20048;-84
2023/12/15 01:43:51;;;;;;;17.15;8.55;;;;;;;;;;8395163;28;20144;-85
2023/12/15 01:47:54;;;;;;;10.55;5.30;;;;;;;;;;8399413;28;20097;-85
2023/12/15 01:51:56;;;;;;;12.30;6.57;;;;;;;;;;8401836;28;20178;-85
2023/12/15 01:56:01;;;;;;;13.35;6.43;;;;;;;;;;8401200;28;20075;-84
2023/12/15 02:00:06;;;;;;;13.80;6.90;;;;;;;;;;8401132;28;20040;-84
2023/12/15 02:04:09;;;;;;;15.60;8.38;;;;;;;;;;8400922;28;20135;-84
2023/12/15 02:08:12;;;;;;;16.10;8.18;;;;;;;;;;8401148;28;20455;-83
2023/12/15 02:12:16;;;;;;;13.20;6.40;;;;;;;;;;8400846;28;20060;-84
2023/12/15 02:16:19;;;;;;;21.10;8.88;;;;;;;;;;8400916;28;20587;-84
2023/12/15 02:20:40;;;;;;;18.58;8.45;;;;;;;;;;8400434;28;20055;-84
2023/12/15 02:24:46;;;;;;;19.40;9.75;;;;;;;;;;8400297;28;20098;-84
2023/12/15 02:28:49;;;;;;;19.05;8.55;;;;;;;;;;8400203;28;20094;-84
2023/12/15 02:32:51;;;;;;;17.33;8.50;;;;;;;;;;8400111;28;20052;-84
2023/12/15 02:36:54;;;;;;;18.70;9.73;;;;;;;;;;8399927;28;20070;-84
2023/12/15 02:40:59;;;;;;;15.93;7.45;;;;;;;;;;8399828;28;20048;-83
2023/12/15 02:45:02;;;;;;;13.18;5.38;;;;;;;;;;8399677;28;20135;-84
2023/12/15 02:49:05;;;;;;;17.08;8.18;;;;;;;;;;8399582;28;20400;-84
2023/12/15 02:53:07;;;;;;;15.02;7.45;;;;;;;;;;8399500;28;20044;-83
2023/12/15 02:57:12;;;;;;;14.80;7.50;;;;;;;;;;8399843;28;20554;-83
2023/12/15 03:01:15;;;;;;;19.85;7.82;;;;;;;;;;8399174;28;20055;-84
2023/12/15 03:05:17;;;;;;;15.23;7.63;;;;;;;;;;8399536;28;20062;-83
2023/12/15 03:09:20;;;;;;;16.67;8.02;;;;;;;;;;8399468;28;20098;-85
2023/12/15 03:13:24;;;;;;;17.45;8.48;;;;;;;;;;8398749;28;20060;-84
2023/12/15 03:17:29;;;;;;;15.13;7.38;;;;;;;;;;8398867;28;20044;-84
2023/12/15 03:21:31;;;;;;;14.10;8.13;;;;;;;;;;8398663;28;20094;-84
2023/12/15 03:25:34;;;;;;;17.48;8.00;;;;;;;;;;8398346;28;20707;-84
2023/12/15 03:29:38;;;;;;;20.67;9.75;;;;;;;;;;8398247;28;20055;-83
2023/12/15 03:33:41;;;;;;;24.17;9.13;;;;;;;;;;8398207;28;20044;-84
2023/12/15 03:37:44;;;;;;;18.83;8.18;;;;;;;;;;8398495;28;20407;-86
2023/12/15 03:41:47;;;;;;;21.20;9.40;;;;;;;;;;8398391;28;20475;-83
2023/12/15 03:45:51;;;;;;;21.23;9.52;;;;;;;;;;8397778;28;20045;-84
2023/12/15 03:49:54;;;;;;;17.17;7.78;;;;;;;;;;8397619;28;20097;-84
2023/12/15 03:53:56;;;;;;;19.92;7.90;;;;;;;;;;8397423;28;20438;-85
2023/12/15 03:57:59;;;;;;;19.05;8.07;;;;;;;;;;8397476;28;20052;-84
2023/12/15 04:02:04;;;;;;;16.98;8.13;;;;;;;;;;8397272;28;20048;-84
2023/12/15 04:06:08;;;;;;;18.67;9.25;;;;;;;;;;8396948;28;20052;-84
2023/12/15 04:10:11;;;;;;;20.38;8.82;;;;;;;;;;8396544;28;20059;-85
2023/12/15 04:14:14;;;;;;;18.60;8.80;;;;;;;;;;8396602;28;20576;-85
2023/12/15 04:18:18;;;;;;;19.23;8.98;;;;;;;;;;8396752;28;20131;-84
2023/12/15 04:22:22;;;;;;;20.80;9.27;;;;;;;;;;8396577;28;20144;-86
2023/12/15 04:26:25;;;;;;;22.27;9.98;;;;;;;;;;8396473;28;20044;-86
2023/12/15 04:30:28;;;;;;;18.40;8.48;;;;;;;;;;8396481;28;20119;-85
2023/12/15 04:34:33;;;;;;;19.25;9.70;;;;;;;;;;8396736;28;20585;-84
2023/12/15 04:38:36;;;;;;;22.63;9.48;;;;;;;;;;8396320;28;20131;-84
2023/12/15 04:42:39;;;;;;;16.15;8.77;;;;;;;;;;8396186;28;20072;-84
2023/12/15 04:46:42;;;;;;;23.55;10.57;;;;;;;;;;8395934;28;20072;-84
2023/12/15 04:50:46;;;;;;;18.52;9.77;;;;;;;;;;8396078;28;20077;-84
2023/12/15 04:54:49;;;;;;;21.58;10.75;;;;;;;;;;8395951;28;20068;-84
2023/12/15 04:58:51;;;;;;;25.42;10.60;;;;;;;;;;8395883;28;20056;-85
2023/12/15 05:02:54;;;;;;;24.30;10.88;;;;;;;;;;8395874;28;20075;-85
2023/12/15 05:06:58;;;;;;;22.55;10.93;;;;;;;;;;8395631;28;20049;-84
2023/12/15 05:11:01;;;;;;;30.75;11.55;;;;;;;;;;8395478;28;20123;-84
2023/12/15 05:15:06;;;;;;;26.77;13.00;;;;;;;;;;8378239;28;20496;-84
2023/12/15 05:19:08;;;;;;;29.25;14.35;;;;;;;;;;8396041;28;20414;-84
2023/12/15 05:23:14;;;;;;;28.15;13.43;;;;;;;;;;8400455;28;20125;-84
2023/12/15 05:27:16;;;;;;;20.35;8.90;;;;;;;;;;8402661;28;20503;-85
2023/12/15 05:31:19;;;;;;;29.35;14.23;;;;;;;;;;8401970;28;20140;-84
2023/12/15 05:35:22;;;;;;;26.65;15.07;;;;;;;;;;8402003;28;20049;-84
2023/12/15 05:39:26;;;;;;;34.33;15.18;;;;;;;;;;8402269;28;20070;-83
2023/12/15 05:43:29;;;;;;;37.28;16.83;;;;;;;;;;8401683;28;20049;-85
2023/12/15 05:47:32;;;;;;;41.03;18.52;;;;;;;;;;8401587;28;20491;-84
2023/12/15 05:51:35;;;;;;;30.42;15.90;;;;;;;;;;8401735;28;20399;-84
2023/12/15 05:55:39;;;;;;;41.13;16.63;;;;;;;;;;8401232;28;20250;-84
2023/12/15 05:59:42;;;;;;;33.92;16.30;;;;;;;;;;8401117;28;20060;-84
2023/12/15 06:03:45;;;;;;;36.58;15.88;;;;;;;;;;8400818;28;20068;-85
2023/12/15 06:07:48;;;;;;;45.53;20.95;;;;;;;;;;8400852;28;20040;-84
2023/12/15 06:11:53;;;;;;;38.22;18.65;;;;;;;;;;8400556;28;20076;-84
2023/12/15 06:15:55;;;;;;;37.80;15.10;;;;;;;;;;8400956;28;20048;-84
2023/12/15 06:19:58;;;;;;;36.50;15.00;;;;;;;;;;8400515;28;20064;-84
2023/12/15 06:24:01;;;;;;;36.67;16.70;;;;;;;;;;8400378;28;20054;-84
2023/12/15 06:28:09;;;;;;;37.88;16.10;;;;;;;;;;8400269;28;20075;-86
2023/12/15 06:32:12;;;;;;;43.88;16.90;;;;;;;;;;8382271;28;20155;-84
2023/12/15 06:36:15;;;;;;;43.67;17.52;;;;;;;;;;8400013;28;20127;-86
2023/12/15 06:40:18;;;;;;;40.20;17.13;;;;;;;;;;8399943;28;20189;-85
2023/12/15 06:44:22;;;;;;;43.33;18.73;;;;;;;;;;8400060;28;20377;-83
2023/12/15 06:48:25;;;;;;;49.30;20.75;;;;;;;;;;8399493;28;20050;-84
2023/12/15 06:52:28;;;;;;;32.45;16.33;;;;;;;;;;8399454;28;20048;-84
2023/12/15 06:56:31;;;;;;;46.20;20.75;;;;;;;;;;8399821;28;20044;-84
2023/12/15 07:00:35;;;;;;;32.50;16.75;;;;;;;;;;8399395;28;20048;-86
2023/12/15 07:04:38;;;;;;;35.88;16.67;;;;;;;;;;8399159;28;20041;-86
2023/12/15 07:08:42;;;;;;;36.95;17.23;;;;;;;;;;8381491;28;20056;-85
2023/12/15 07:12:45;;;;;;;50.30;25.77;;;;;;;;;;8398806;28;20097;-85
2023/12/15 07:16:49;;;;;;;31.17;15.40;;;;;;;;;;8399057;28;20051;-86
2023/12/15 07:20:52;;;;;;;29.52;14.57;;;;;;;;;;8398752;28;20049;-86
2023/12/15 07:24:54;;;;;;;29.02;14.35;;;;;;;;;;8398547;28;20053;-87
2023/12/15 07:28:57;;;;;;;29.23;13.90;;;;;;;;;;8398508;28;20055;-86
2023/12/15 07:33:02;;;;;;;31.08;12.68;;;;;;;;;;8398307;28;20045;-86
2023/12/15 07:37:05;;;;;;;28.27;12.63;;;;;;;;;;8398216;28;20125;-87
2023/12/15 07:41:08;;;;;;;38.58;15.70;;;;;;;;;;8398573;28;20827;-84
2023/12/15 07:45:12;;;;;;;39.83;17.77;;;;;;;;;;8396939;28;20040;-84
2023/12/15 07:49:17;;;;;;;41.05;19.65;;;;;;;;;;8397791;28;20048;-84
2023/12/15 07:53:20;;;;;;;33.80;14.82;;;;;;;;;;8397413;28;20090;-84
2023/12/15 07:57:23;;;;;;;27.80;13.65;;;;;;;;;;8397877;28;20480;-84
2023/12/15 08:01:26;;;;;;;33.28;15.10;;;;;;;;;;8397205;28;20049;-84
2023/12/15 08:05:31;;;;;;;41.55;17.98;;;;;;;;;;8397418;28;20134;-84
2023/12/15 08:09:34;;;;;;;38.75;16.88;;;;;;;;;;8397406;28;20553;-83
2023/12/15 08:13:37;;;;;;;37.03;16.60;;;;;;;;;;8396717;28;20075;-84
2023/12/15 08:17:40;;;;;;;32.65;14.63;;;;;;;;;;8396641;28;20059;-83
2023/12/15 08:21:44;;;;;;;27.25;12.70;;;;;;;;;;8396601;28;20051;-83
2023/12/15 08:25:47;;;;;;;23.77;11.70;;;;;;;;;;8396326;28;20052;-84
2023/12/15 08:29:51;;;;;;;24.00;10.90;;;;;;;;;;8396276;28;20044;-83
2023/12/15 08:33:55;;;;;;;24.20;11.73;;;;;;;;;;8396244;28;20048;-83
2023/12/15 08:38:02;;;;;;;27.98;14.02;;;;;;;;;;8378656;28;20188;-84
2023/12/15 08:42:07;;;;;;;20.02;9.88;;;;;;;;;;8395870;28;20047;-84
2023/12/15 08:46:10;;;;;;;29.42;12.20;;;;;;;;;;8378370;28;20051;-83
2023/12/15 08:58:48;;;;;;;23.90;10.98;;;;;;;;;;7702007;26;20052;-84
2023/12/15 09:02:53;;;;;;;23.13;9.43;;;;;;;;;;8428910;28;20415;-83
2023/12/15 09:11:07;;;;;;;26.63;13.65;;;;;;;;;;3636568;22;20132;-83
2023/12/15 09:15:12;;;;;;;21.63;10.30;;;;;;;;;;8362317;28;20052;-83
2023/12/15 09:19:15;;;;;;;25.00;10.38;;;;;;;;;;8362810;28;20486;-82
2023/12/15 09:23:19;;;;;;;27.13;10.43;;;;;;;;;;8362500;28;20537;-83
2023/12/15 09:27:22;;;;;;;25.05;12.80;;;;;;;;;;8362188;28;20067;-83
2023/12/15 09:31:37;;;;;;;30.30;14.85;;;;;;;;;;8362174;28;20127;-86
2023/12/15 09:35:56;;;;;;;25.98;11.30;;;;;;;;;;8362620;28;20508;-83
2023/12/15 09:40:00;;;;;;;60.33;28.35;;;;;;;;;;8361921;28;20090;-83
2023/12/15 09:44:04;;;;;;;24.20;11.32;;;;;;;;;;8361943;28;20477;-83
2023/12/15 09:48:16;;;;;;;22.05;11.32;;;;;;;;;;8361602;28;20103;-83
2023/12/15 09:52:25;;;;;;;23.48;10.25;;;;;;;;;;8361910;28;20135;-83
2023/12/15 09:56:28;;;;;;;33.28;13.35;;;;;;;;;;8361797;28;20052;-84
2023/12/15 10:00:31;;;;;;;28.42;12.77;;;;;;;;;;8361681;28;20048;-84
2023/12/15 10:04:39;;;;;;;27.00;12.27;;;;;;;;;;8344022;28;20069;-83
2023/12/15 10:08:43;;;;;;;26.77;11.88;;;;;;;;;;8348081;28;20055;-83
2023/12/15 10:12:47;;;;;;;22.42;10.73;;;;;;;;;;8367406;28;20424;-84
2023/12/15 10:16:50;;;;;;;49.92;17.60;;;;;;;;;;8418769;22;20052;-83
2023/12/15 10:20:55;;;;;;;61.25;19.85;;;;;;;;;;8400401;28;20101;-83
2023/12/15 10:24:58;;;;;;;29.77;13.50;;;;;;;;;;8400509;28;20051;-83
2023/12/15 10:29:02;;;;;;;40.55;16.10;;;;;;;;;;8400155;28;20036;-84
2023/12/15 10:33:10;;;;;;;26.33;11.18;;;;;;;;;;8400197;28;20051;-83
2023/12/15 10:37:15;;;;;;;30.15;13.20;;;;;;;;;;8399923;28;20075;-83
2023/12/15 10:41:20;;;;;;;28.05;12.43;;;;;;;;;;8399844;28;20097;-85
2023/12/15 10:45:24;;;;;;;26.52;13.18;;;;;;;;;;8399607;28;20378;-83
2023/12/15 10:49:28;;;;;;;29.45;13.70;;;;;;;;;;8399477;28;20051;-83
2023/12/15 10:53:33;;;;;;;24.73;12.75;;;;;;;;;;8399497;28;20048;-84
2023/12/15 10:57:36;;;;;;;28.98;13.98;;;;;;;;;;8399691;28;20412;-85
2023/12/15 11:01:42;;;;;;;36.03;16.27;;;;;;;;;;8399222;28;20032;-84
2023/12/15 11:05:44;;;;;;;40.55;16.63;;;;;;;;;;8381446;28;20443;-84
2023/12/15 11:09:49;;;;;;;28.67;14.32;;;;;;;;;;8398894;28;20108;-83
2023/12/15 11:13:53;;;;;;;36.00;17.65;;;;;;;;;;8398798;28;20051;-83
2023/12/15 11:17:58;;;;;;;28.00;11.90;;;;;;;;;;8397691;28;20057;-85
2023/12/15 11:22:01;;;;;;;30.40;15.93;;;;;;;;;;8398636;28;20044;-83
2023/12/15 11:26:06;;;;;;;36.10;18.08;;;;;;;;;;8398351;28;20076;-83
2023/12/15 11:30:28;;;;;;;40.97;18.55;;;;;;;;;;8398317;28;20060;-83
2023/12/15 11:34:43;;;;;;;38.72;18.85;;;;;;;;;;8398194;28;20064;-83
2023/12/15 11:38:49;;;;;;;34.15;16.10;;;;;;;;;;8397813;28;20083;-83
2023/12/15 11:42:53;;;;;;;25.88;12.88;;;;;;;;;;8397924;28;20040;-83
2023/12/15 11:46:56;;;;;;;37.58;17.58;;;;;;;;;;8397615;28;20041;-84
2023/12/15 11:51:04;;;;;;;31.50;15.80;;;;;;;;;;8397696;28;20052;-83
2023/12/15 11:55:08;;;;;;;36.38;16.23;;;;;;;;;;8397412;28;20123;-83
2023/12/15 11:59:14;;;;;;;29.98;14.82;;;;;;;;;;8397253;28;20044;-83
2023/12/15 12:03:24;;;;;;;32.22;15.40;;;;;;;;;;8397125;28;20483;-85
2023/12/15 12:07:29;;;;;;;45.20;18.98;;;;;;;;;;8397057;28;20408;-83
2023/12/15 12:11:34;;;;;;;39.60;19.20;;;;;;;;;;8396942;28;20045;-84
2023/12/15 12:15:52;;;;;;;33.17;16.20;;;;;;;;;;8396421;28;20537;-85
2023/12/15 12:19:55;;;;;;;37.53;16.30;;;;;;;;;;8396658;28;20048;-85
2023/12/15 12:23:59;;;;;;;33.13;15.77;;;;;;;;;;8396579;28;20477;-83
2023/12/15 12:28:02;;;;;;;28.80;14.70;;;;;;;;;;8396356;28;20131;-83
2023/12/15 12:32:17;;;;;;;32.40;15.75;;;;;;;;;;8396450;28;20508;-83
2023/12/15 12:36:24;;;;;;;36.45;16.73;;;;;;;;;;8396333;28;20558;-84
2023/12/15 12:40:41;;;;;;;31.63;15.77;;;;;;;;;;8378628;28;20131;-84
2023/12/15 12:44:44;;;;;;;26.90;13.13;;;;;;;;;;8378850;28;20072;-84
2023/12/15 12:48:49;;;;;;;28.08;14.57;;;;;;;;;;8396064;28;20102;-84
2023/12/15 12:52:52;;;;;;;33.10;15.90;;;;;;;;;;8395928;28;20483;-85
2023/12/15 12:56:55;;;;;;;33.42;15.50;;;;;;;;;;8395919;28;20123;-84
2023/12/15 13:01:04;;;;;;;32.90;16.75;;;;;;;;;;8378225;28;20052;-85
2023/12/15 13:05:12;;;;;;;28.77;13.63;;;;;;;;;;8395809;28;20076;-84
2023/12/15 13:09:18;;;;;;;30.85;16.17;;;;;;;;;;8395527;28;20044;-84
2023/12/15 13:13:22;;;;;;;30.80;15.02;;;;;;;;;;8395708;28;20128;-83
2023/12/15 13:17:25;;;;;;;27.92;13.98;;;;;;;;;;8395414;28;20462;-86
2023/12/15 13:21:30;;;;;;;23.90;12.65;;;;;;;;;;8395622;28;20044;-84
2023/12/15 13:25:35;;;;;;;25.80;11.68;;;;;;;;;;8395374;28;20135;-84
2023/12/15 13:29:38;;;;;;;26.00;13.15;;;;;;;;;;8396100;28;20512;-84
2023/12/15 13:33:46;;;;;;;22.77;11.85;;;;;;;;;;8378189;28;20546;-84
2023/12/15 13:37:51;;;;;;;21.92;11.80;;;;;;;;;;8395394;28;20044;-84
2023/12/15 13:41:54;;;;;;;24.88;11.68;;;;;;;;;;8396511;28;20055;-86
2023/12/15 13:45:57;;;;;;;26.02;13.30;;;;;;;;;;8401043;28;20044;-84
2023/12/15 13:49:59;;;;;;;23.90;13.65;;;;;;;;;;8401755;28;20482;-83
2023/12/15 13:54:04;;;;;;;26.98;12.82;;;;;;;;;;8401306;28;20148;-84
2023/12/15 13:58:07;;;;;;;31.67;13.40;;;;;;;;;;8401686;28;20488;-83
2023/12/15 14:02:10;;;;;;;28.90;14.98;;;;;;;;;;8383639;28;20080;-83
2023/12/15 14:06:13;;;;;;;27.55;14.32;;;;;;;;;;8400948;28;20131;-83
2023/12/15 14:10:18;;;;;;;23.85;12.13;;;;;;;;;;8400773;28;20048;-82
2023/12/15 14:14:21;;;;;;;22.08;10.80;;;;;;;;;;8400885;28;20045;-82
2023/12/15 14:18:24;;;;;;;28.95;13.43;;;;;;;;;;8400458;28;20071;-83
2023/12/15 14:22:27;;;;;;;30.35;14.15;;;;;;;;;;8400495;28;20166;-83
2023/12/15 14:26:31;;;;;;;28.63;14.07;;;;;;;;;;8400349;28;20052;-82
2023/12/15 14:30:34;;;;;;;23.75;12.02;;;;;;;;;;8400289;28;20040;-83
2023/12/15 14:34:37;;;;;;;28.35;13.63;;;;;;;;;;8399506;28;20123;-83
2023/12/15 14:38:41;;;;;;;34.13;13.85;;;;;;;;;;8399314;28;20044;-85
2023/12/15 14:42:46;;;;;;;23.80;10.98;;;;;;;;;;8394272;28;20551;-83
2023/12/15 14:46:49;;;;;;;21.50;11.43;;;;;;;;;;8380190;28;20109;-83
2023/12/15 14:50:52;;;;;;;22.63;9.32;;;;;;;;;;8399461;28;20052;-83
2023/12/15 14:54:56;;;;;;;26.00;12.48;;;;;;;;;;8395876;28;20202;-85
2023/12/15 14:59:01;;;;;;;31.20;12.85;;;;;;;;;;8369277;28;20047;-84
2023/12/15 15:03:04;;;;;;;29.38;14.10;;;;;;;;;;8398206;28;20833;-82
2023/12/15 15:07:07;;;;;;;29.55;13.35;;;;;;;;;;8398941;28;20069;-82
2023/12/15 15:11:11;;;;;;;44.42;20.00;;;;;;;;;;8393679;28;20490;-84
2023/12/15 15:15:15;;;;;;;25.90;11.60;;;;;;;;;;8398831;28;20071;-85
2023/12/15 15:19:18;;;;;;;30.58;14.88;;;;;;;;;;8398717;28;20040;-85
2023/12/15 15:23:22;;;;;;;29.45;13.73;;;;;;;;;;8397122;28;20067;-85
2023/12/15 15:27:26;;;;;;;35.55;16.52;;;;;;;;;;8398172;28;20408;-84
2023/12/15 15:31:31;;;;;;;41.88;19.50;;;;;;;;;;8386726;28;20052;-85
2023/12/15 15:35:34;;;;;;;32.90;16.02;;;;;;;;;;8416323;28;20491;-83
2023/12/15 15:39:42;;;;;;;41.85;17.60;;;;;;;;;;8381420;28;20063;-84
2023/12/15 15:43:45;;;;;;;32.17;15.30;;;;;;;;;;8406049;28;20445;-87
2023/12/15 15:47:50;;;;;;;44.88;20.92;;;;;;;;;;8411394;28;20479;-83
2023/12/15 15:51:53;;;;;;;55.78;28.38;;;;;;;;;;8428413;28;20048;-84
2023/12/15 15:55:56;;;;;;;60.08;28.88;;;;;;;;;;8428624;28;20043;-85
2023/12/15 16:00:08;;;;;;;41.85;21.05;;;;;;;;;;8428553;28;20079;-85
2023/12/15 16:04:15;;;;;;;45.40;19.93;;;;;;;;;;8428734;28;20438;-83
2023/12/15 16:08:18;;;;;;;35.33;16.58;;;;;;;;;;8430740;28;20083;-84
2023/12/15 16:12:21;;;;;;;52.38;24.17;;;;;;;;;;8430625;28;20043;-84
2023/12/15 16:16:24;;;;;;;71.50;28.25;;;;;;;;;;8430560;28;20059;-84
2023/12/15 16:20:29;;;;;;;84.82;34.75;;;;;;;;;;8430236;28;20048;-83
2023/12/15 16:24:34;;;;;;;67.65;27.88;;;;;;;;;;8412532;28;20150;-85
2023/12/15 16:28:39;;;;;;;61.55;30.88;;;;;;;;;;8429940;28;20082;-84
2023/12/15 16:32:44;;;;;;;70.53;26.70;;;;;;;;;;8429964;28;20063;-84
2023/12/15 16:36:49;;;;;;;60.50;23.27;;;;;;;;;;8412717;28;20078;-84
2023/12/15 16:40:52;;;;;;;46.20;22.13;;;;;;;;;;8429818;28;20048;-83
2023/12/15 16:44:55;;;;;;;40.92;19.13;;;;;;;;;;8429706;28;20036;-84
2023/12/15 16:48:59;;;;;;;36.53;15.38;;;;;;;;;;8429470;28;20550;-84
2023/12/15 16:53:06;;;;;;;28.92;13.45;;;;;;;;;;8429543;28;20048;-83
2023/12/15 16:57:09;;;;;;;35.67;16.60;;;;;;;;;;8429479;28;20043;-84
2023/12/15 17:01:12;;;;;;;49.65;21.38;;;;;;;;;;8429411;28;20487;-84
2023/12/15 17:05:16;;;;;;;48.13;21.05;;;;;;;;;;8429210;28;20044;-84
2023/12/15 17:09:20;;;;;;;64.25;21.80;;;;;;;;;;8429155;28;20048;-83
2023/12/15 17:13:23;;;;;;;56.15;19.30;;;;;;;;;;8429059;28;20122;-83
2023/12/15 17:17:26;;;;;;;65.60;26.08;;;;;;;;;;8432695;28;20070;-84
2023/12/15 17:21:29;;;;;;;32.40;15.13;;;;;;;;;;8436425;28;20602;-83
2023/12/15 17:25:35;;;;;;;46.22;17.33;;;;;;;;;;8435853;28;20044;-83
2023/12/15 17:29:38;;;;;;;36.50;15.48;;;;;;;;;;8435763;28;20048;-84
2023/12/15 17:33:41;;;;;;;69.43;32.55;;;;;;;;;;8435562;28;20147;-83
2023/12/15 17:37:47;;;;;;;46.72;21.27;;;;;;;;;;8435995;28;20555;-83
2023/12/15 17:41:54;;;;;;;77.55;25.50;;;;;;;;;;8435964;28;20051;-83
2023/12/15 17:45:57;;;;;;;83.82;29.08;;;;;;;;;;8435363;28;20096;-84
2023/12/15 17:50:01;;;;;;;57.83;22.20;;;;;;;;;;8435070;28;20460;-86
2023/12/15 17:54:04;;;;;;;50.60;20.33;;;;;;;;;;8435183;28;20094;-83
2023/12/15 17:58:09;;;;;;;63.17;23.92;;;;;;;;;;8434840;28;20093;-83
2023/12/15 18:02:11;;;;;;;81.53;32.63;;;;;;;;;;8434764;28;20048;-83
2023/12/15 18:06:14;;;;;;;83.68;28.95;;;;;;;;;;8434628;28;20044;-83
2023/12/15 18:10:20;;;;;;;52.40;22.08;;;;;;;;;;8434325;28;20048;-83
2023/12/15 18:14:24;;;;;;;51.80;19.40;;;;;;;;;;8434480;28;20050;-83
2023/12/15 18:18:29;;;;;;;68.57;26.48;;;;;;;;;;8434142;28;20579;-83
2023/12/15 18:22:36;;;;;;;45.17;20.83;;;;;;;;;;8434262;28;20051;-83
2023/12/15 18:26:49;;;;;;;69.20;25.38;;;;;;;;;;8433985;28;20082;-81
2023/12/15 18:30:54;;;;;;;49.05;23.02;;;;;;;;;;8433371;28;20044;-82
2023/12/15 18:34:57;;;;;;;37.65;16.83;;;;;;;;;;8433912;28;20044;-83
2023/12/15 18:39:00;;;;;;;27.20;11.20;;;;;;;;;;8433646;28;20048;-83
2023/12/15 18:43:04;;;;;;;51.05;21.58;;;;;;;;;;8433577;28;20052;-83
2023/12/15 18:47:12;;;;;;;49.17;19.95;;;;;;;;;;8433845;28;20512;-83
2023/12/15 18:51:19;;;;;;;54.05;21.60;;;;;;;;;;8433340;28;20048;-82
2023/12/15 18:55:23;;;;;;;51.08;20.50;;;;;;;;;;8433195;28;20055;-86
2023/12/15 18:59:25;;;;;;;53.92;21.73;;;;;;;;;;8433124;28;20063;-84
2023/12/15 19:03:30;;;;;;;65.43;23.75;;;;;;;;;;8432884;28;20489;-84
2023/12/15 19:07:34;;;;;;;41.63;17.40;;;;;;;;;;8432600;28;20056;-84
2023/12/15 19:11:37;;;;;;;56.03;21.60;;;;;;;;;;8432641;28;20059;-83
2023/12/15 19:15:40;;;;;;;55.67;24.73;;;;;;;;;;8432263;28;20055;-84
2023/12/15 19:19:44;;;;;;;42.78;19.23;;;;;;;;;;8432455;28;20044;-83
2023/12/15 19:23:48;;;;;;;42.03;17.77;;;;;;;;;;8432129;28;20054;-84
2023/12/15 19:27:53;;;;;;;51.38;23.38;;;;;;;;;;8432084;28;20055;-84
2023/12/15 19:31:56;;;;;;;43.15;18.83;;;;;;;;;;8431979;28;20040;-84
2023/12/15 19:36:01;;;;;;;45.67;18.70;;;;;;;;;;8431769;28;20072;-84
2023/12/15 19:40:08;;;;;;;62.72;27.05;;;;;;;;;;8430713;28;20048;-84
2023/12/15 19:44:12;;;;;;;48.00;19.60;;;;;;;;;;8431603;28;20072;-83
2023/12/15 19:48:15;;;;;;;40.70;18.17;;;;;;;;;;8431836;28;20048;-85
2023/12/15 19:52:20;;;;;;;59.80;24.20;;;;;;;;;;8431407;28;20071;-84
2023/12/15 19:56:24;;;;;;;57.80;22.20;;;;;;;;;;8431691;28;20040;-83
2023/12/15 20:00:27;;;;;;;35.90;17.80;;;;;;;;;;8431004;28;20608;-83
2023/12/15 20:04:30;;;;;;;41.65;18.75;;;;;;;;;;8392373;28;20110;-84
2023/12/15 20:08:35;;;;;;;39.33;16.95;;;;;;;;;;8397283;28;20528;-83
2023/12/15 20:12:38;;;;;;;49.88;20.27;;;;;;;;;;8392571;28;20049;-84
2023/12/15 20:16:44;;;;;;;46.50;20.98;;;;;;;;;;8363815;28;20068;-85
2023/12/15 20:20:48;;;;;;;41.08;20.80;;;;;;;;;;8368972;28;20070;-84
2023/12/15 20:24:58;;;;;;;50.33;20.63;;;;;;;;;;8378666;28;20396;-85
2023/12/15 20:29:06;;;;;;;43.28;19.70;;;;;;;;;;8387757;28;20052;-84
2023/12/15 20:33:10;;;;;;;40.85;17.98;;;;;;;;;;8398930;28;20056;-85
2023/12/15 20:37:17;;;;;;;41.25;18.15;;;;;;;;;;8396421;28;20119;-86
2023/12/15 20:41:23;;;;;;;56.42;21.80;;;;;;;;;;8396328;28;20044;-84
2023/12/15 20:45:29;;;;;;;44.63;20.92;;;;;;;;;;8396313;28;20048;-85
2023/12/15 20:49:32;;;;;;;47.00;19.27;;;;;;;;;;8387015;28;20076;-84
2023/12/15 20:53:37;;;;;;;38.17;17.85;;;;;;;;;;8371140;28;20065;-86
2023/12/15 20:57:48;;;;;;;36.72;17.73;;;;;;;;;;8378988;28;20075;-90
2023/12/15 21:01:52;;;;;;;41.65;19.60;;;;;;;;;;8378885;28;20062;-84
2023/12/15 21:05:56;;;;;;;46.58;19.85;;;;;;;;;;8386025;28;20072;-91
2023/12/15 21:09:59;;;;;;;35.40;15.00;;;;;;;;;;8368977;28;20056;-84
2023/12/15 21:14:04;;;;;;;42.10;19.20;;;;;;;;;;8395739;28;20055;-86
2023/12/15 21:18:07;;;;;;;31.30;16.40;;;;;;;;;;8395037;28;20140;-83
2023/12/15 21:22:12;;;;;;;36.83;17.52;;;;;;;;;;8395682;28;20048;-83
2023/12/15 21:26:17;;;;;;;38.97;16.73;;;;;;;;;;8394979;28;20040;-83
2023/12/15 21:30:21;;;;;;;34.05;15.93;;;;;;;;;;8394771;28;20045;-83
2023/12/15 21:34:29;;;;;;;37.05;16.27;;;;;;;;;;8395173;28;20041;-83
2023/12/15 21:38:32;;;;;;;37.30;16.27;;;;;;;;;;8395165;28;20043;-83
2023/12/15 21:42:35;;;;;;;34.85;15.73;;;;;;;;;;8395074;28;20049;-83
2023/12/15 21:46:40;;;;;;;36.35;15.20;;;;;;;;;;8394981;28;20071;-83
2023/12/15 21:50:46;;;;;;;40.63;15.90;;;;;;;;;;8395140;28;20389;-82
2023/12/15 21:54:51;;;;;;;35.38;16.90;;;;;;;;;;8395402;28;20071;-83
2023/12/15 21:58:55;;;;;;;25.27;12.60;;;;;;;;;;8361129;28;20049;-83
2023/12/15 22:03:01;;;;;;;36.90;16.83;;;;;;;;;;8378283;28;20064;-83
2023/12/15 22:07:06;;;;;;;32.35;15.05;;;;;;;;;;8405695;28;20078;-86
2023/12/15 22:11:09;;;;;;;32.53;14.68;;;;;;;;;;8404640;28;20041;-83
2023/12/15 22:15:12;;;;;;;35.65;17.83;;;;;;;;;;8401247;28;20373;-84
2023/12/15 22:19:17;;;;;;;31.95;16.35;;;;;;;;;;8400556;28;20087;-83
2023/12/15 22:31:45;;;;;;;37.03;16.52;;;;;;;;;;8831490;22;20527;-83
2023/12/15 22:35:49;;;;;;;33.33;16.15;;;;;;;;;;8400224;28;20052;-84
2023/12/15 22:39:52;;;;;;;37.83;17.30;;;;;;;;;;8400353;28;20041;-83
2023/12/15 22:43:55;;;;;;;37.30;17.35;;;;;;;;;;8399899;28;20127;-83
2023/12/15 22:47:58;;;;;;;40.42;16.65;;;;;;;;;;8398474;28;20068;-84
2023/12/15 22:52:03;;;;;;;40.25;17.23;;;;;;;;;;8399963;28;20052;-83
2023/12/15 22:56:08;;;;;;;36.95;16.75;;;;;;;;;;8399315;28;20135;-84
2023/12/15 23:00:16;;;;;;;37.90;18.08;;;;;;;;;;8500106;22;20052;-83
2023/12/15 23:04:21;;;;;;;35.45;16.90;;;;;;;;;;8435217;28;20048;-83
2023/12/15 23:08:40;;;;;;;32.85;15.52;;;;;;;;;;8432508;28;20139;-83
2023/12/15 23:12:43;;;;;;;38.88;17.05;;;;;;;;;;8415710;28;20080;-83
2023/12/15 23:16:47;;;;;;;38.80;16.92;;;;;;;;;;8412026;28;20085;-90
2023/12/15 23:20:50;;;;;;;40.50;16.83;;;;;;;;;;8426679;28;20051;-94
